Time;durP1;ratioP1;P1;durP2;ratioP2;P2;SDS_P1;SDS_P2;PMS_P1;PMS_P2;Temp;Humidity;BMP_temperature;BMP_pressure;BME280_temperature;BME280_humidity;BME280_pressure;Samples;Min_cycle;Max_cycle;Signal;HPM_P1;HPM_P2
2022/03/31 00:00:47;;;;;;;34.95;14.52;;;359.20;1945.60;;;;;;4956897;29;20030;-79
2022/03/31 00:03:17;;;;;;;44.35;21.65;;;359.20;1920.00;;;;;;4950221;29;20527;-83
2022/03/31 00:05:48;;;;;;;46.83;22.10;;;359.00;1945.60;;;;;;4941842;29;20114;-81
2022/03/31 00:08:19;;;;;;;47.45;22.45;;;359.00;1945.60;;;;;;4942201;29;20027;-80
2022/03/31 00:10:48;;;;;;;45.25;21.48;;;359.00;1971.20;;;;;;4942277;29;20027;-83
2022/03/31 00:13:19;;;;;;;39.92;18.63;;;359.00;1971.20;;;;;;4941867;29;20027;-83
2022/03/31 00:15:47;;;;;;;44.47;16.13;;;359.00;1971.20;;;;;;4941962;29;20483;-82
2022/03/31 00:18:15;;;;;;;44.88;23.98;;;359.10;1945.60;;;;;;4941823;29;20027;-85
2022/03/31 00:20:41;;;;;;;57.83;27.17;;;359.00;1945.60;;;;;;4941840;29;20349;-80
2022/03/31 00:23:07;;;;;;;66.00;33.50;;;359.10;1945.60;;;;;;4941621;29;20026;-83
2022/03/31 00:25:33;;;;;;;75.05;39.22;;;359.20;1945.60;;;;;;4941653;29;20031;-79
2022/03/31 00:28:01;;;;;;;60.00;30.13;;;359.10;1971.20;;;;;;4941850;29;20020;-80
2022/03/31 00:30:27;;;;;;;49.42;26.35;;;359.00;1971.20;;;;;;4941570;29;20363;-82
2022/03/31 00:32:56;;;;;;;56.78;29.33;;;359.00;1945.60;;;;;;4942051;29;20023;-77
2022/03/31 00:35:22;;;;;;;63.85;30.38;;;359.00;1971.20;;;;;;4941776;29;20031;-80
2022/03/31 00:37:48;;;;;;;51.53;24.17;;;359.00;1996.80;;;;;;4941523;29;20020;-80
2022/03/31 00:40:17;;;;;;;52.85;25.23;;;358.80;1996.80;;;;;;4941672;29;20023;-78
2022/03/31 00:42:49;;;;;;;66.22;38.78;;;359.00;1996.80;;;;;;4973497;28;20027;-80
2022/03/31 00:45:24;;;;;;;55.47;27.50;;;358.90;2022.40;;;;;;4941423;29;20469;-80
2022/03/31 00:47:53;;;;;;;52.78;26.35;;;358.90;1996.80;;;;;;4941486;29;20031;-80
2022/03/31 00:50:22;;;;;;;58.55;27.88;;;358.80;2022.40;;;;;;4941108;29;20058;-82
2022/03/31 00:52:48;;;;;;;50.00;25.77;;;358.90;2022.40;;;;;;4941262;29;20086;-80
2022/03/31 00:55:19;;;;;;;49.10;26.77;;;358.90;2022.40;;;;;;4941587;29;20460;-82
2022/03/31 00:57:47;;;;;;;54.20;28.48;;;358.90;2022.40;;;;;;4940839;29;20019;-83
2022/03/31 01:00:17;;;;;;;58.20;27.02;;;359.00;2022.40;;;;;;4940856;29;20023;-81
2022/03/31 01:02:45;;;;;;;50.20;24.92;;;359.00;2022.40;;;;;;4941033;29;20049;-82
2022/03/31 01:05:14;;;;;;;56.88;26.65;;;359.00;2022.40;;;;;;4940436;29;20042;-82
2022/03/31 01:07:40;;;;;;;53.05;26.80;;;359.00;2022.40;;;;;;4955988;28;20023;-81
2022/03/31 01:10:12;;;;;;;54.40;26.42;;;358.90;2022.40;;;;;;4940731;29;20023;-82
2022/03/31 01:12:39;;;;;;;56.67;27.30;;;359.00;2022.40;;;;;;4940591;29;20027;-84
2022/03/31 01:15:14;;;;;;;51.30;27.95;;;358.90;2048.00;;;;;;4972987;28;20038;-83
2022/03/31 01:17:43;;;;;;;36.45;19.75;;;358.90;2022.40;;;;;;4956681;29;20463;-84
2022/03/31 01:20:12;;;;;;;37.55;11.73;;;358.90;2048.00;;;;;;4940464;29;20023;-82
2022/03/31 01:22:38;;;;;;;23.15;10.75;;;359.00;2022.40;;;;;;4940807;29;20051;-82
2022/03/31 01:25:06;;;;;;;27.92;11.07;;;359.00;2022.40;;;;;;4940703;29;20444;-79
2022/03/31 01:27:36;;;;;;;40.30;11.70;;;359.10;2022.40;;;;;;4972725;28;20038;-82
2022/03/31 01:30:09;;;;;;;25.25;10.98;;;359.10;2048.00;;;;;;4940997;29;20027;-82
2022/03/31 01:32:39;;;;;;;30.85;11.98;;;359.20;2048.00;;;;;;4940392;29;20033;-82
2022/03/31 01:35:06;;;;;;;24.27;9.93;;;359.20;2048.00;;;;;;4940489;29;20019;-82
2022/03/31 01:37:32;;;;;;;26.35;8.90;;;359.20;2048.00;;;;;;4940473;29;20038;-81
2022/03/31 01:39:59;;;;;;;26.42;11.13;;;359.20;2048.00;;;;;;4940252;29;20031;-81
2022/03/31 01:42:29;;;;;;;27.45;11.02;;;359.20;2073.60;;;;;;4940620;29;20038;-80
2022/03/31 01:44:58;;;;;;;33.08;11.07;;;359.20;2099.20;;;;;;4940676;29;20024;-79
2022/03/31 01:47:24;;;;;;;23.58;9.68;;;359.10;2099.20;;;;;;4940277;29;20456;-79
2022/03/31 01:49:51;;;;;;;32.45;12.50;;;359.00;2124.80;;;;;;4940520;29;20411;-80
2022/03/31 01:52:17;;;;;;;24.80;10.45;;;359.00;2124.80;;;;;;4940230;29;20031;-80
2022/03/31 01:54:43;;;;;;;21.05;9.60;;;359.10;2150.40;;;;;;4940044;29;20508;-80
2022/03/31 01:57:09;;;;;;;25.30;9.85;;;359.10;2150.40;;;;;;4940257;29;20114;-84
2022/03/31 01:59:37;;;;;;;28.38;9.82;;;359.10;2150.40;;;;;;4940120;29;20026;-84
2022/03/31 02:02:06;;;;;;;22.70;9.18;;;359.00;2150.40;;;;;;4939770;29;20483;-81
2022/03/31 02:04:32;;;;;;;31.35;8.80;;;359.00;2176.00;;;;;;4939954;29;20058;-80
2022/03/31 02:06:59;;;;;;;22.65;8.40;;;359.10;2176.00;;;;;;4940023;29;20117;-83
2022/03/31 02:09:26;;;;;;;25.10;9.07;;;359.10;2176.00;;;;;;4939706;29;20131;-81
2022/03/31 02:11:57;;;;;;;31.42;9.25;;;359.30;2201.60;;;;;;4939830;29;20129;-81
2022/03/31 02:14:24;;;;;;;28.45;10.48;;;359.20;2201.60;;;;;;4939620;29;20082;-81
2022/03/31 02:16:50;;;;;;;29.10;11.52;;;359.20;2201.60;;;;;;4939738;29;20023;-83
2022/03/31 02:19:19;;;;;;;23.88;9.82;;;384.10;2227.20;;;;;;4939208;29;20023;-86
2022/03/31 02:21:46;;;;;;;28.17;10.23;;;359.10;2227.20;;;;;;4939708;29;20452;-84
2022/03/31 02:24:14;;;;;;;33.40;12.10;;;359.20;2227.20;;;;;;4939718;29;20083;-81
2022/03/31 02:26:41;;;;;;;30.60;13.45;;;359.20;2252.80;;;;;;4939776;29;20097;-84
2022/03/31 02:29:08;;;;;;;26.63;12.38;;;359.10;2252.80;;;;;;4939342;29;20062;-83
2022/03/31 02:31:34;;;;;;;28.13;12.30;;;359.10;2278.40;;;;;;4939532;29;20162;-82
2022/03/31 02:34:00;;;;;;;26.38;10.85;;;359.20;2252.80;;;;;;4939505;29;20039;-81
2022/03/31 02:36:26;;;;;;;31.58;12.10;;;359.10;2278.40;;;;;;4939255;29;20479;-81
2022/03/31 02:38:53;;;;;;;25.70;11.15;;;359.10;2304.00;;;;;;4939511;29;20031;-82
2022/03/31 02:41:19;;;;;;;29.13;11.32;;;359.20;2304.00;;;;;;4939428;29;20023;-83
2022/03/31 02:43:45;;;;;;;30.63;9.50;;;359.20;2329.60;;;;;;4939112;29;20026;-80
2022/03/31 02:46:12;;;;;;;27.63;9.45;;;359.20;2329.60;;;;;;4939204;29;20019;-82
2022/03/31 02:48:39;;;;;;;23.35;9.77;;;359.20;2329.60;;;;;;4939059;29;20026;-82
2022/03/31 02:51:05;;;;;;;30.38;10.10;;;384.00;2329.60;;;;;;4938562;29;20023;-80
2022/03/31 02:56:16;;;;;;;23.48;10.10;;;359.20;2329.60;;;;;;4956050;29;20030;-83
2022/03/31 02:58:42;;;;;;;22.63;9.38;;;359.30;2329.60;;;;;;4938886;29;20054;-82
2022/03/31 03:01:08;;;;;;;24.55;8.68;;;359.30;2329.60;;;;;;4938759;29;20038;-80
2022/03/31 03:03:35;;;;;;;29.23;9.02;;;384.00;2329.60;;;;;;4938714;29;20031;-81
2022/03/31 03:06:02;;;;;;;21.92;8.27;;;384.00;2329.60;;;;;;4938695;29;20130;-82
2022/03/31 03:08:31;;;;;;;22.23;9.50;;;384.00;2329.60;;;;;;4938755;29;20023;-82
2022/03/31 03:10:57;;;;;;;24.60;9.07;;;384.10;2329.60;;;;;;4938078;29;20480;-79
2022/03/31 03:13:24;;;;;;;31.63;9.70;;;384.10;2329.60;;;;;;4938675;29;20019;-83
2022/03/31 03:15:55;;;;;;;23.55;8.82;;;384.10;2329.60;;;;;;4938714;29;20044;-82
2022/03/31 03:18:22;;;;;;;29.23;8.30;;;384.10;2329.60;;;;;;4938380;29;20019;-81
2022/03/31 03:20:48;;;;;;;31.13;11.27;;;384.20;2329.60;;;;;;4938692;29;20031;-82
2022/03/31 03:23:14;;;;;;;27.45;8.70;;;384.10;2329.60;;;;;;4938605;29;20427;-80
2022/03/31 03:25:43;;;;;;;33.97;13.70;;;359.20;2329.60;;;;;;4938497;29;20027;-84
2022/03/31 03:28:10;;;;;;;40.70;17.52;;;384.10;2329.60;;;;;;4938594;29;20038;-80
2022/03/31 03:30:36;;;;;;;35.55;15.52;;;384.40;2329.60;;;;;;4937989;29;20465;-82
2022/03/31 03:33:02;;;;;;;29.92;11.07;;;384.20;2329.60;;;;;;4938075;29;20023;-79
2022/03/31 03:35:28;;;;;;;26.58;8.13;;;384.20;2329.60;;;;;;4938639;29;20527;-83
2022/03/31 03:37:55;;;;;;;30.80;8.43;;;384.30;2329.60;;;;;;4938517;29;20063;-81
2022/03/31 03:40:26;;;;;;;26.02;8.02;;;384.30;2329.60;;;;;;4955643;29;20460;-83
2022/03/31 03:42:54;;;;;;;24.80;8.50;;;384.40;2329.60;;;;;;4938273;29;20109;-81
2022/03/31 03:45:20;;;;;;;29.00;9.27;;;384.40;2329.60;;;;;;4938187;29;20024;-78
2022/03/31 03:47:49;;;;;;;29.88;11.27;;;384.40;2329.60;;;;;;4938302;29;20054;-83
2022/03/31 03:50:15;;;;;;;24.17;8.93;;;384.40;2329.60;;;;;;4938538;29;20023;-81
2022/03/31 03:52:41;;;;;;;26.65;9.98;;;384.40;2329.60;;;;;;4938193;29;20045;-80
2022/03/31 03:55:08;;;;;;;32.17;10.75;;;384.40;2329.60;;;;;;4938540;29;20110;-82
2022/03/31 03:57:34;;;;;;;32.67;12.75;;;384.40;2329.60;;;;;;4954434;29;20551;-83
2022/03/31 04:00:00;;;;;;;30.63;9.02;;;384.40;2329.60;;;;;;4938186;29;20106;-83
2022/03/31 04:02:26;;;;;;;28.02;9.68;;;384.40;2329.60;;;;;;4938369;29;20061;-83
2022/03/31 04:04:52;;;;;;;23.85;9.63;;;384.40;2329.60;;;;;;4938289;29;20078;-81
2022/03/31 04:07:18;;;;;;;36.22;11.48;;;384.30;2329.60;;;;;;4937783;29;20031;-80
2022/03/31 04:09:44;;;;;;;30.13;10.85;;;384.30;2329.60;;;;;;4938240;29;20019;-83
2022/03/31 04:12:10;;;;;;;25.92;10.77;;;384.30;2329.60;;;;;;4938175;29;20470;-82
2022/03/31 04:14:36;;;;;;;36.42;12.77;;;384.20;2329.60;;;;;;4938175;29;20055;-81
2022/03/31 04:17:02;;;;;;;41.80;12.60;;;384.10;2329.60;;;;;;4938281;29;20438;-80
2022/03/31 04:19:29;;;;;;;32.67;13.38;;;384.10;2329.60;;;;;;4938455;29;20023;-83
2022/03/31 04:21:55;;;;;;;37.97;17.42;;;384.00;2329.60;;;;;;4937973;29;20055;-80
2022/03/31 04:24:21;;;;;;;40.45;18.85;;;384.00;2329.60;;;;;;4938231;29;20035;-81
2022/03/31 04:26:47;;;;;;;29.38;12.50;;;384.00;2329.60;;;;;;4938201;29;20023;-82
2022/03/31 04:29:13;;;;;;;32.72;14.85;;;384.10;2329.60;;;;;;4937898;29;20068;-80
2022/03/31 04:31:44;;;;;;;27.77;9.73;;;384.20;2329.60;;;;;;4937982;29;20058;-82
2022/03/31 04:34:13;;;;;;;28.73;10.18;;;384.30;2329.60;;;;;;4938078;29;20031;-84
2022/03/31 04:36:39;;;;;;;36.72;11.98;;;384.40;2329.60;;;;;;4938138;29;20019;-81
2022/03/31 04:39:05;;;;;;;24.02;9.00;;;384.40;2329.60;;;;;;4938232;29;20034;-80
2022/03/31 04:41:31;;;;;;;36.42;8.63;;;384.50;2329.60;;;;;;4938645;29;20019;-80
2022/03/31 04:43:57;;;;;;;25.55;8.75;;;384.60;2329.60;;;;;;4941661;29;20030;-83
2022/03/31 04:46:24;;;;;;;29.50;8.63;;;384.60;2329.60;;;;;;4941348;29;20478;-80
2022/03/31 04:48:55;;;;;;;25.75;8.80;;;384.60;2329.60;;;;;;4973381;28;20026;-81
2022/03/31 04:51:21;;;;;;;25.33;11.10;;;384.60;2329.60;;;;;;4941399;29;20023;-81
2022/03/31 04:53:47;;;;;;;28.95;13.65;;;384.70;2329.60;;;;;;4941403;29;20030;-82
2022/03/31 04:56:15;;;;;;;28.65;12.25;;;384.60;2329.60;;;;;;4941010;29;20027;-80
2022/03/31 04:58:41;;;;;;;29.05;11.15;;;384.70;2329.60;;;;;;4941262;29;20439;-82
2022/03/31 05:01:07;;;;;;;27.27;9.57;;;409.60;2355.20;;;;;;4941148;29;20033;-83
2022/03/31 05:03:33;;;;;;;29.95;9.75;;;384.70;2329.60;;;;;;4940869;29;20446;-80
2022/03/31 05:05:59;;;;;;;29.90;9.35;;;384.70;2329.60;;;;;;4940992;29;20047;-80
2022/03/31 05:08:26;;;;;;;29.35;10.35;;;384.70;2329.60;;;;;;4941026;29;20122;-84
2022/03/31 05:10:52;;;;;;;26.40;8.32;;;384.70;2329.60;;;;;;4940720;29;20027;-82
2022/03/31 05:13:17;;;;;;;33.22;10.55;;;384.70;2329.60;;;;;;4958190;29;20034;-81
2022/03/31 05:15:43;;;;;;;29.30;11.18;;;384.70;2329.60;;;;;;4956876;29;20027;-80
2022/03/31 05:18:09;;;;;;;25.02;11.82;;;384.70;2329.60;;;;;;4940577;29;20043;-81
2022/03/31 05:20:36;;;;;;;33.72;12.77;;;384.70;2329.60;;;;;;4941082;29;20019;-82
2022/03/31 05:23:02;;;;;;;32.95;12.23;;;384.80;2329.60;;;;;;4940960;29;20031;-80
2022/03/31 05:25:31;;;;;;;30.55;15.15;;;409.60;2355.20;;;;;;4940549;29;20070;-81
2022/03/31 05:28:00;;;;;;;31.23;17.13;;;384.90;2329.60;;;;;;4940745;29;20375;-84
2022/03/31 05:30:26;;;;;;;36.65;15.77;;;384.90;2329.60;;;;;;4940381;29;20031;-81
2022/03/31 05:32:55;;;;;;;34.00;15.63;;;384.90;2329.60;;;;;;4940532;29;20034;-82
2022/03/31 05:35:21;;;;;;;37.05;13.80;;;384.90;2329.60;;;;;;4940277;29;20049;-81
2022/03/31 05:37:50;;;;;;;34.70;14.98;;;384.90;2329.60;;;;;;4940288;29;20031;-81
2022/03/31 05:40:17;;;;;;;60.92;28.50;;;384.90;2329.60;;;;;;4956586;29;20027;-80
2022/03/31 05:42:44;;;;;;;29.25;13.35;;;384.90;2329.60;;;;;;4940481;29;20050;-82
2022/03/31 05:45:12;;;;;;;42.58;11.88;;;384.90;2329.60;;;;;;4940310;29;20031;-80
2022/03/31 05:47:40;;;;;;;32.60;10.82;;;384.90;2329.60;;;;;;4940390;29;20058;-82
2022/03/31 05:50:11;;;;;;;33.40;10.38;;;409.60;2355.20;;;;;;4940206;29;20106;-80
2022/03/31 05:52:38;;;;;;;29.42;10.75;;;409.60;2355.20;;;;;;4939724;28;20365;-82
2022/03/31 05:55:08;;;;;;;28.52;9.98;;;409.60;2355.20;;;;;;4939796;29;20031;-81
2022/03/31 05:57:36;;;;;;;27.83;11.95;;;409.60;2355.20;;;;;;4940150;29;20456;-79
2022/03/31 06:00:08;;;;;;;30.30;10.77;;;409.60;2355.20;;;;;;4939970;29;20038;-81
2022/03/31 06:02:34;;;;;;;38.97;13.40;;;409.60;2355.20;;;;;;4939682;29;20039;-83
2022/03/31 06:05:00;;;;;;;29.00;9.95;;;409.60;2355.20;;;;;;4939695;29;20054;-81
2022/03/31 06:07:25;;;;;;;32.30;9.18;;;409.70;2355.20;;;;;;4939855;29;20028;-81
2022/03/31 06:09:51;;;;;;;25.77;10.52;;;409.70;2355.20;;;;;;4939985;29;20031;-83
2022/03/31 06:12:17;;;;;;;27.17;8.85;;;409.70;2355.20;;;;;;4939591;29;20070;-83
2022/03/31 06:14:44;;;;;;;25.15;10.10;;;409.70;2355.20;;;;;;4939886;29;20023;-82
2022/03/31 06:17:10;;;;;;;29.30;10.35;;;409.80;2355.20;;;;;;4939794;29;20025;-81
2022/03/31 06:19:36;;;;;;;33.58;10.60;;;409.70;2355.20;;;;;;4939459;29;20027;-79
2022/03/31 06:22:03;;;;;;;24.02;9.40;;;410.00;2355.20;;;;;;4939525;29;20126;-78
2022/03/31 06:24:29;;;;;;;27.80;9.40;;;409.70;2355.20;;;;;;4939834;29;20470;-83
2022/03/31 06:26:57;;;;;;;20.48;9.38;;;409.70;2355.20;;;;;;4939428;29;20114;-81
2022/03/31 06:29:25;;;;;;;28.77;10.02;;;409.70;2355.20;;;;;;4939682;29;20023;-81
2022/03/31 06:31:53;;;;;;;28.92;11.82;;;409.70;2355.20;;;;;;4939540;29;20054;-82
2022/03/31 06:34:20;;;;;;;33.72;15.15;;;384.90;2329.60;;;;;;4939179;29;20066;-80
2022/03/31 06:36:46;;;;;;;27.85;11.50;;;409.80;2355.20;;;;;;4956695;29;20024;-80
2022/03/31 06:39:13;;;;;;;21.73;9.70;;;409.70;2355.20;;;;;;4939408;29;20118;-80
2022/03/31 06:41:40;;;;;;;30.92;11.63;;;409.70;2355.20;;;;;;4938831;29;20120;-78
2022/03/31 06:44:08;;;;;;;23.65;9.60;;;409.70;2355.20;;;;;;4939362;29;20363;-82
2022/03/31 06:46:38;;;;;;;35.28;10.15;;;409.60;2355.20;;;;;;4939311;29;20027;-82
2022/03/31 06:49:04;;;;;;;29.52;11.75;;;409.70;2355.20;;;;;;4938993;29;20375;-83
2022/03/31 06:51:30;;;;;;;24.80;8.88;;;409.70;2355.20;;;;;;4939132;29;20023;-81
2022/03/31 06:53:57;;;;;;;30.08;8.40;;;409.60;2355.20;;;;;;4938960;29;20038;-80
2022/03/31 06:56:27;;;;;;;25.48;8.35;;;409.60;2355.20;;;;;;4938660;29;20475;-82
2022/03/31 06:58:54;;;;;;;36.15;12.63;;;384.90;2329.60;;;;;;4938920;29;20096;-84
2022/03/31 07:01:20;;;;;;;29.30;9.13;;;409.70;2355.20;;;;;;4938496;29;20030;-81
2022/03/31 07:03:46;;;;;;;26.40;8.43;;;409.70;2355.20;;;;;;4938804;28;20031;-84
2022/03/31 07:06:12;;;;;;;26.50;8.32;;;409.70;2355.20;;;;;;4938157;29;20030;-83
2022/03/31 07:08:38;;;;;;;27.45;10.02;;;409.80;2355.20;;;;;;4938893;29;20027;-81
2022/03/31 07:11:05;;;;;;;25.15;9.30;;;409.80;2355.20;;;;;;4938837;29;20078;-84
2022/03/31 07:13:31;;;;;;;32.28;9.73;;;409.90;2355.20;;;;;;4938819;29;20102;-82
2022/03/31 07:15:57;;;;;;;30.15;9.07;;;410.00;2355.20;;;;;;4970739;28;20511;-83
2022/03/31 07:18:23;;;;;;;24.88;9.05;;;410.10;2355.20;;;;;;4955019;29;20015;-84
2022/03/31 07:20:53;;;;;;;26.85;9.23;;;410.20;2355.20;;;;;;4938753;29;20126;-82
2022/03/31 07:23:21;;;;;;;29.70;9.60;;;410.20;2355.20;;;;;;4938365;29;20027;-81
2022/03/31 07:25:47;;;;;;;28.88;10.60;;;410.30;2355.20;;;;;;4938492;29;20383;-80
2022/03/31 07:28:14;;;;;;;25.73;9.43;;;410.30;2355.20;;;;;;4938659;29;20019;-79
2022/03/31 07:30:40;;;;;;;29.67;10.77;;;410.40;2355.20;;;;;;4940896;29;20023;-81
2022/03/31 07:33:06;;;;;;;31.38;13.35;;;410.40;2355.20;;;;;;4950794;29;20031;-82
2022/03/31 07:35:34;;;;;;;30.92;11.05;;;410.50;2355.20;;;;;;4938276;29;20118;-84
2022/03/31 07:38:07;;;;;;;27.80;12.07;;;435.20;2355.20;;;;;;4954055;29;20063;-81
2022/03/31 07:40:33;;;;;;;23.73;10.00;;;435.20;2355.20;;;;;;4937979;29;20027;-80
2022/03/31 07:43:01;;;;;;;23.25;8.30;;;435.20;2355.20;;;;;;4937933;29;20114;-77
2022/03/31 07:45:28;;;;;;;26.92;10.18;;;435.20;2355.20;;;;;;4937840;29;20081;-80
2022/03/31 07:47:55;;;;;;;32.72;11.70;;;410.50;2355.20;;;;;;4938247;29;20023;-82
2022/03/31 07:50:22;;;;;;;28.67;8.95;;;435.30;2355.20;;;;;;4938099;29;20027;-83
2022/03/31 07:52:48;;;;;;;40.55;10.75;;;435.20;2355.20;;;;;;4937492;29;20031;-79
2022/03/31 07:55:16;;;;;;;20.35;7.95;;;435.20;2355.20;;;;;;4938025;29;20359;-79
2022/03/31 07:57:42;;;;;;;28.42;11.93;;;435.30;2355.20;;;;;;4937918;29;20028;-82
2022/03/31 08:00:10;;;;;;;30.35;9.32;;;435.50;2355.20;;;;;;4938010;29;20023;-79
2022/03/31 08:02:36;;;;;;;28.50;9.63;;;435.50;2355.20;;;;;;4938127;29;20027;-82
2022/03/31 08:05:02;;;;;;;25.77;8.55;;;435.50;2355.20;;;;;;4937432;29;20050;-80
2022/03/31 08:07:28;;;;;;;27.60;10.70;;;435.50;2355.20;;;;;;4938247;29;20019;-82
2022/03/31 08:09:54;;;;;;;35.53;11.23;;;435.50;2355.20;;;;;;4936245;29;20027;-80
2022/03/31 08:12:20;;;;;;;31.75;11.27;;;435.50;2355.20;;;;;;4937956;29;20114;-82
2022/03/31 08:14:46;;;;;;;32.25;10.50;;;435.50;2355.20;;;;;;4938044;29;20031;-81
2022/03/31 08:17:12;;;;;;;24.83;9.95;;;435.50;2355.20;;;;;;4939523;29;20085;-82
2022/03/31 08:19:39;;;;;;;31.13;10.40;;;435.50;2355.20;;;;;;4941282;29;20023;-82
2022/03/31 08:22:06;;;;;;;21.95;7.75;;;435.60;2355.20;;;;;;4941675;29;20474;-81
2022/03/31 08:24:32;;;;;;;23.02;9.88;;;435.80;2355.20;;;;;;4941652;29;20026;-81
2022/03/31 08:27:01;;;;;;;27.98;12.23;;;435.60;2355.20;;;;;;4941513;29;20030;-82
2022/03/31 08:29:27;;;;;;;26.13;9.10;;;435.60;2355.20;;;;;;4941427;29;20027;-80
2022/03/31 08:31:54;;;;;;;21.95;9.95;;;435.70;2355.20;;;;;;4941209;29;20089;-81
2022/03/31 08:34:20;;;;;;;26.33;9.38;;;435.80;2355.20;;;;;;4941139;29;20019;-80
2022/03/31 08:36:46;;;;;;;24.98;8.27;;;435.80;2355.20;;;;;;4941328;29;20023;-79
2022/03/31 08:39:11;;;;;;;25.60;8.00;;;435.90;2355.20;;;;;;4941220;29;20055;-84
2022/03/31 08:41:37;;;;;;;25.20;8.88;;;436.00;2355.20;;;;;;4941587;29;20408;-84
2022/03/31 08:44:05;;;;;;;24.83;7.95;;;436.00;2355.20;;;;;;4941575;29;20030;-87
2022/03/31 08:46:34;;;;;;;28.38;9.02;;;435.90;2355.20;;;;;;4941563;29;20419;-85
2022/03/31 08:49:02;;;;;;;22.15;9.30;;;435.90;2355.20;;;;;;4958724;29;20027;-84
2022/03/31 08:51:28;;;;;;;26.13;9.38;;;435.90;2355.20;;;;;;4941614;29;20376;-82
2022/03/31 08:53:55;;;;;;;30.45;7.18;;;435.90;2355.20;;;;;;4941379;29;20078;-86
2022/03/31 08:56:21;;;;;;;27.30;8.50;;;435.90;2355.20;;;;;;4941718;29;20027;-86
2022/03/31 08:58:48;;;;;;;24.48;8.35;;;436.00;2355.20;;;;;;4939591;29;20475;-83
2022/03/31 09:01:17;;;;;;;30.38;10.30;;;436.00;2355.20;;;;;;4941124;29;20019;-84
2022/03/31 09:04:44;;;;;;;29.00;10.23;;;436.00;2355.20;;;;;;4941227;28;20027;-85
2022/03/31 09:07:09;;;;;;;25.70;9.82;;;436.00;2355.20;;;;;;4948911;29;20035;-85
2022/03/31 09:09:51;;;;;;;31.40;10.30;;;460.80;2380.80;;;;;;4940647;29;20476;-84
2022/03/31 09:12:17;;;;;;;24.77;8.25;;;460.80;2380.80;;;;;;4940671;29;20535;-84
2022/03/31 09:15:08;;;;;;;30.55;9.02;;;460.80;2380.80;;;;;;4972701;28;20136;-85
2022/03/31 09:17:39;;;;;;;25.65;8.90;;;436.10;2355.20;;;;;;4940653;29;20161;-84
2022/03/31 09:20:05;;;;;;;27.30;9.82;;;460.80;2380.80;;;;;;4973062;28;20102;-83
2022/03/31 09:22:43;;;;;;;29.30;9.75;;;435.80;2355.20;;;;;;4940204;29;20023;-84
2022/03/31 09:25:10;;;;;;;26.95;10.45;;;435.90;2355.20;;;;;;4972419;28;20046;-85
2022/03/31 09:27:36;;;;;;;23.77;8.73;;;435.90;2355.20;;;;;;4939806;28;20027;-84
2022/03/31 09:30:07;;;;;;;42.58;12.02;;;435.90;2355.20;;;;;;4940088;29;20476;-83
2022/03/31 09:32:32;;;;;;;44.25;19.40;;;435.90;2355.20;;;;;;4940578;29;20122;-85
2022/03/31 09:35:09;;;;;;;29.13;11.65;;;436.00;2355.20;;;;;;4940966;29;20065;-85
2022/03/31 09:37:51;;;;;;;26.98;11.18;;;435.80;2355.20;;;;;;4940402;29;20086;-83
2022/03/31 09:40:34;;;;;;;37.50;10.55;;;435.80;2355.20;;;;;;4957374;29;20015;-84
2022/03/31 09:43:18;;;;;;;36.38;11.38;;;435.80;2355.20;;;;;;4940324;29;20491;-83
2022/03/31 09:45:45;;;;;;;25.08;9.27;;;435.80;2355.20;;;;;;4971663;28;20019;-83
2022/03/31 09:48:22;;;;;;;46.45;10.25;;;435.80;2355.20;;;;;;4940169;29;20027;-81
2022/03/31 09:50:49;;;;;;;43.90;11.68;;;435.80;2355.20;;;;;;4939800;29;20375;-83
2022/03/31 09:53:16;;;;;;;38.13;11.40;;;435.70;2355.20;;;;;;4939522;29;20041;-83
2022/03/31 09:55:47;;;;;;;33.88;11.32;;;435.70;2355.20;;;;;;4939507;29;20074;-83
2022/03/31 09:58:23;;;;;;;27.38;8.82;;;435.60;2355.20;;;;;;4939710;29;20038;-80
2022/03/31 10:00:53;;;;;;;36.90;9.95;;;435.50;2355.20;;;;;;4957128;29;20094;-82
2022/03/31 10:03:20;;;;;;;32.42;9.55;;;435.50;2355.20;;;;;;4970755;28;20023;-82
2022/03/31 10:05:47;;;;;;;29.50;9.85;;;435.50;2355.20;;;;;;4969606;28;20053;-83
2022/03/31 10:08:13;;;;;;;23.95;9.63;;;435.50;2355.20;;;;;;4939106;29;20026;-83
2022/03/31 10:10:40;;;;;;;30.85;9.63;;;435.50;2355.20;;;;;;4939092;29;20531;-80
2022/03/31 10:13:24;;;;;;;31.08;9.35;;;435.30;2355.20;;;;;;4939671;29;20034;-84
2022/03/31 10:16:04;;;;;;;27.90;8.77;;;435.40;2355.20;;;;;;4971528;28;20062;-84
2022/03/31 10:18:30;;;;;;;27.10;10.68;;;435.50;2355.20;;;;;;4955281;29;20038;-83
2022/03/31 10:21:01;;;;;;;29.85;9.57;;;435.50;2355.20;;;;;;4956894;29;20023;-82
2022/03/31 10:26:33;;;;;;;30.58;8.65;;;435.50;2355.20;;;;;;4956847;29;20110;-81
2022/03/31 10:29:11;;;;;;;36.20;9.98;;;435.60;2355.20;;;;;;4956156;28;20030;-83
2022/03/31 10:31:42;;;;;;;25.60;8.25;;;435.60;2355.20;;;;;;4971039;28;20062;-82
2022/03/31 10:34:10;;;;;;;29.80;8.38;;;435.60;2355.20;;;;;;4971388;28;20027;-82
2022/03/31 10:36:38;;;;;;;36.55;16.83;;;435.60;2355.20;;;;;;4956420;29;20452;-78
2022/03/31 10:39:07;;;;;;;41.72;12.43;;;435.70;2355.20;;;;;;4938631;28;20019;-81
2022/03/31 10:41:40;;;;;;;36.03;13.95;;;435.80;2355.20;;;;;;4939190;29;20059;-80
2022/03/31 10:44:08;;;;;;;;;;;435.90;2355.20;;;;;;4939956;29;20027;-81
2022/03/31 10:46:34;;;;;;;37.45;15.63;;;435.90;2355.20;;;;;;4971202;28;20254;-84
2022/03/31 10:49:04;;;;;;;54.08;23.42;;;435.90;2355.20;;;;;;4939242;29;20082;-82
2022/03/31 10:51:40;;;;;;;31.20;10.93;;;435.90;2355.20;;;;;;4938850;29;20034;-83
2022/03/31 10:54:09;;;;;;;38.20;10.27;;;436.00;2355.20;;;;;;4938667;29;20114;-85
2022/03/31 10:56:35;;;;;;;36.65;17.13;;;436.00;2355.20;;;;;;4938788;29;20078;-85
2022/03/31 10:59:04;;;;;;;36.28;12.88;;;436.10;2355.20;;;;;;4939016;29;20058;-84
2022/03/31 11:01:33;;;;;;;26.08;9.80;;;436.10;2355.20;;;;;;4956082;29;20070;-84
2022/03/31 11:04:08;;;;;;;30.30;12.65;;;436.00;2355.20;;;;;;4956204;28;20047;-82
2022/03/31 11:06:51;;;;;;;22.95;9.38;;;436.00;2355.20;;;;;;4938718;29;20030;-82
2022/03/31 11:09:29;;;;;;;32.03;11.27;;;436.00;2355.20;;;;;;4956385;29;20051;-81
2022/03/31 11:11:59;;;;;;;30.90;9.65;;;435.90;2355.20;;;;;;4938703;29;20035;-81
2022/03/31 11:14:26;;;;;;;27.92;9.70;;;436.00;2355.20;;;;;;4955528;29;20037;-80
2022/03/31 11:16:53;;;;;;;34.88;11.57;;;436.00;2355.20;;;;;;4970750;28;20023;-82
2022/03/31 11:19:20;;;;;;;25.70;10.75;;;436.00;2355.20;;;;;;4922968;29;20413;-82
2022/03/31 11:21:47;;;;;;;39.33;11.90;;;436.10;2355.20;;;;;;4938286;29;20037;-83
2022/03/31 11:24:13;;;;;;;30.55;14.20;;;436.10;2355.20;;;;;;4938667;29;20054;-79
2022/03/31 11:26:43;;;;;;;32.25;11.02;;;436.10;2355.20;;;;;;4938579;29;20027;-83
2022/03/31 11:29:18;;;;;;;32.53;10.23;;;436.10;2355.20;;;;;;4938483;29;20444;-82
2022/03/31 11:31:51;;;;;;;30.67;11.90;;;436.10;2355.20;;;;;;4955694;29;20074;-83
2022/03/31 11:34:24;;;;;;;36.75;11.98;;;436.10;2355.20;;;;;;4938550;29;20023;-83
2022/03/31 11:36:51;;;;;;;27.15;10.98;;;436.10;2355.20;;;;;;4955515;29;20051;-82
2022/03/31 11:39:24;;;;;;;30.90;11.20;;;460.80;2380.80;;;;;;4955576;29;20070;-82
2022/03/31 11:41:50;;;;;;;55.75;24.77;;;460.90;2380.80;;;;;;4938142;29;20110;-82
2022/03/31 11:44:16;;;;;;;52.75;27.05;;;460.90;2380.80;;;;;;4938552;29;20027;-81
2022/03/31 11:46:47;;;;;;;37.35;17.02;;;461.00;2380.80;;;;;;4938581;29;20170;-80
2022/03/31 11:49:24;;;;;;;33.80;11.25;;;461.10;2380.80;;;;;;4938198;29;20379;-82
2022/03/31 11:51:52;;;;;;;33.53;12.00;;;461.10;2380.80;;;;;;4939736;29;20471;-81
2022/03/31 11:54:20;;;;;;;35.70;12.35;;;461.20;2380.80;;;;;;4959810;29;20024;-83
2022/03/31 11:56:46;;;;;;;30.52;10.43;;;461.30;2380.80;;;;;;4942273;29;20427;-83
2022/03/31 11:59:15;;;;;;;31.83;12.63;;;461.40;2380.80;;;;;;4959378;29;20106;-81
2022/03/31 12:01:43;;;;;;;36.65;12.35;;;461.40;2380.80;;;;;;4942517;29;20030;-81
2022/03/31 12:04:20;;;;;;;35.65;11.70;;;461.50;2380.80;;;;;;4942090;29;20054;-78
2022/03/31 12:06:48;;;;;;;33.35;12.77;;;461.60;2380.80;;;;;;4942060;29;20031;-81
2022/03/31 12:09:14;;;;;;;33.15;9.88;;;461.60;2380.80;;;;;;4942306;29;20118;-79
2022/03/31 12:11:41;;;;;;;33.70;10.10;;;461.70;2380.80;;;;;;4974357;28;20082;-82
2022/03/31 12:14:10;;;;;;;34.67;10.65;;;461.70;2380.80;;;;;;4942032;29;20019;-80